Terminal Aerodrome Forecast
Issued by NWS Brownsville, TX

Home | Current Version | Previous Version | Text Only | Print | Product List | Glossary On
Versions: 1 2 3 4 5 6 7 8 9 10 11 12 13 14 15 16 17
000
FTUS44 KBRO 231100
TAFHRL
TAF
KHRL 231120Z 2312/2412 VRB05KT 6SM BR FEW015
     FM231500 15013KT P6SM SCT035
     FM240000 12006KT P6SM SKC=

USA.gov is the U.S. government's official web portal to all federal, state and local government web resources and services.